Time;durP1;ratioP1;P1;durP2;ratioP2;P2;SDS_P1;SDS_P2;PMS_P1;PMS_P2;Temp;Humidity;BMP_temperature;BMP_pressure;BME280_temperature;BME280_humidity;BME280_pressure;Samples;Min_cycle;Max_cycle;Signal;HPM_P1;HPM_P2
2023/08/28 00:01:03;;;;;;;11.18;8.77;;;;;;;21.56;100.00;98864.34;5139490;28;20134;-64
2023/08/28 00:03:29;;;;;;;12.88;11.15;;;;;;;21.60;100.00;98844.72;5140002;28;20046;-62
2023/08/28 00:05:55;;;;;;;11.05;7.60;;;;;;;21.52;100.00;98844.13;5139332;28;20138;-62
2023/08/28 00:08:21;;;;;;;11.05;7.90;;;;;;;21.50;100.00;98837.47;5139600;28;20324;-67
2023/08/28 00:10:47;;;;;;;14.50;8.82;;;;;;;21.57;100.00;98835.22;5139626;28;20050;-67
2023/08/28 00:13:13;;;;;;;17.58;9.18;;;;;;;21.61;100.00;98824.72;5139251;28;20065;-64
2023/08/28 00:15:39;;;;;;;14.27;8.63;;;;;;;21.49;100.00;98827.53;5139381;28;20050;-62
2023/08/28 00:18:05;;;;;;;10.88;8.63;;;;;;;21.57;100.00;98834.44;5139438;28;20051;-64
2023/08/28 00:20:31;;;;;;;11.98;7.65;;;;;;;21.59;100.00;98830.00;5139586;28;20055;-63
2023/08/28 00:22:57;;;;;;;14.43;8.90;;;;;;;21.56;100.00;98833.66;5139180;28;20047;-61
2023/08/28 00:25:23;;;;;;;12.07;8.82;;;;;;;21.55;100.00;98823.72;5139556;28;20063;-64
2023/08/28 00:27:49;;;;;;;11.35;8.70;;;;;;;21.49;100.00;98825.53;5139005;28;20532;-63
2023/08/28 00:30:15;;;;;;;11.02;8.73;;;;;;;21.51;100.00;98833.44;5139401;28;20079;-62
2023/08/28 00:32:42;;;;;;;11.18;8.63;;;;;;;21.35;100.00;98829.53;5139063;28;20082;-62
2023/08/28 00:35:08;;;;;;;10.95;8.43;;;;;;;21.33;100.00;98833.97;5139402;28;20073;-62
2023/08/28 00:37:34;;;;;;;21.05;8.77;;;;;;;21.29;100.00;98828.53;5138808;28;20055;-64
2023/08/28 00:40:00;;;;;;;14.10;9.57;;;;;;;21.16;100.00;98824.94;5138864;28;20383;-63
2023/08/28 00:42:26;;;;;;;13.77;9.63;;;;;;;21.20;100.00;98833.19;5139129;28;20051;-62
2023/08/28 00:44:52;;;;;;;11.32;8.93;;;;;;;21.22;100.00;98830.72;5138778;27;20075;-61
2023/08/28 00:47:18;;;;;;;10.45;8.23;;;;;;;21.17;100.00;98831.28;5139099;28;20083;-61
2023/08/28 00:49:44;;;;;;;12.90;8.80;;;;;;;21.08;100.00;98826.38;5138786;28;20058;-66
2023/08/28 00:52:12;;;;;;;11.15;8.93;;;;;;;21.18;100.00;98844.00;5139091;28;20306;-65
2023/08/28 00:54:40;;;;;;;9.73;8.73;;;;;;;21.38;100.00;98836.22;5138675;28;20051;-62
2023/08/28 00:57:07;;;;;;;11.23;8.98;;;;;;;21.32;100.00;98824.03;5139086;28;20134;-62
2023/08/28 00:59:33;;;;;;;14.77;8.38;;;;;;;21.26;100.00;98823.03;5138581;28;20340;-66
2023/08/28 01:01:59;;;;;;;11.95;8.43;;;;;;;20.98;100.00;98805.97;5139256;28;20070;-66
2023/08/28 01:04:25;;;;;;;12.43;9.27;;;;;;;21.21;100.00;98815.22;5138462;28;20059;-66
2023/08/28 01:06:59;;;;;;;11.95;10.65;;;;;;;21.35;100.00;98812.81;5138414;28;20074;-66
2023/08/28 01:09:34;;;;;;;12.77;9.07;;;;;;;21.23;100.00;98816.34;5138685;28;20055;-66
2023/08/28 01:12:10;;;;;;;11.18;8.75;;;;;;;21.32;100.00;98812.88;5138639;28;20199;-64
2023/08/28 01:14:47;;;;;;;12.70;11.50;;;;;;;21.23;100.00;98818.38;5138611;28;20051;-64
2023/08/28 01:17:14;;;;;;;15.07;9.10;;;;;;;21.32;100.00;98812.88;5138682;28;20050;-62
2023/08/28 01:19:42;;;;;;;12.18;8.27;;;;;;;21.38;100.00;98808.34;5138651;28;20483;-64
2023/08/28 01:22:16;;;;;;;12.88;8.93;;;;;;;21.40;100.00;98811.47;5138201;28;20043;-62
2023/08/28 01:24:45;;;;;;;11.68;7.95;;;;;;;21.12;100.00;98797.16;5138674;28;20051;-63
2023/08/28 01:27:13;;;;;;;12.85;8.95;;;;;;;21.24;100.00;98806.75;5138429;28;20473;-62
2023/08/28 01:29:39;;;;;;;10.73;8.07;;;;;;;21.36;100.00;98808.03;5138064;28;20188;-61
2023/08/28 01:32:05;;;;;;;11.68;8.55;;;;;;;21.27;100.00;98802.31;5138341;28;20047;-62
2023/08/28 01:34:31;;;;;;;12.23;8.55;;;;;;;21.35;100.00;98801.66;5137907;28;20050;-66
2023/08/28 01:37:00;;;;;;;11.55;8.82;;;;;;;21.30;100.00;98798.63;5138091;28;20099;-64
2023/08/28 01:39:32;;;;;;;10.40;9.20;;;;;;;21.07;100.00;98789.38;5138243;28;20058;-64
2023/08/28 01:41:58;;;;;;;13.05;8.82;;;;;;;21.09;100.00;98789.72;5138210;28;20051;-62
2023/08/28 01:44:30;;;;;;;13.07;8.57;;;;;;;21.14;100.00;98791.16;5137921;28;20504;-66
2023/08/28 01:46:56;;;;;;;8.98;8.05;;;;;;;21.01;100.00;98791.13;5138260;28;20053;-66
2023/08/28 01:49:27;;;;;;;33.80;9.35;;;;;;;21.00;100.00;98792.38;5137767;28;20430;-66
2023/08/28 01:51:53;;;;;;;11.73;8.82;;;;;;;21.04;100.00;98792.25;5137981;28;20086;-65
2023/08/28 01:54:19;;;;;;;11.52;8.88;;;;;;;21.03;100.00;98799.06;5137924;28;20078;-64
2023/08/28 01:56:45;;;;;;;12.23;8.32;;;;;;;21.14;100.00;98788.38;5136957;27;20046;-61
2023/08/28 01:59:11;;;;;;;17.60;8.95;;;;;;;21.15;100.00;98787.91;5138004;28;20103;-66
2023/08/28 02:01:38;;;;;;;12.75;11.52;;;;;;;21.09;100.00;98786.13;5137648;28;20055;-64
2023/08/28 02:04:04;;;;;;;13.48;8.93;;;;;;;20.91;100.00;98773.50;5137567;28;20051;-66
2023/08/28 02:06:30;;;;;;;14.48;9.27;;;;;;;20.86;100.00;98770.53;5137522;28;20179;-66
2023/08/28 02:08:56;;;;;;;13.30;9.18;;;;;;;20.66;100.00;98748.44;5137802;28;20088;-67
2023/08/28 02:11:22;;;;;;;10.50;9.07;;;;;;;20.25;100.00;98724.13;5137478;28;20100;-67
2023/08/28 02:13:48;;;;;;;11.70;9.05;;;;;;;20.52;100.00;98705.06;5137811;28;20061;-67
2023/08/28 02:16:14;;;;;;;12.20;9.40;;;;;;;20.60;100.00;98723.13;5137994;28;20062;-64
2023/08/28 02:18:40;;;;;;;13.48;8.52;;;;;;;20.49;100.00;98742.09;5137829;28;20073;-62
2023/08/28 02:21:07;;;;;;;13.35;10.13;;;;;;;20.49;100.00;98739.31;5137354;28;20142;-64
2023/08/28 02:23:33;;;;;;;11.30;9.18;;;;;;;20.73;100.00;98745.44;5137278;28;20412;-66
2023/08/28 02:25:58;;;;;;;12.38;9.15;;;;;;;20.65;100.00;98760.78;5137573;28;20142;-66
2023/08/28 02:28:25;;;;;;;17.55;12.07;;;;;;;20.57;100.00;98751.84;5137377;28;20151;-64
2023/08/28 02:30:51;;;;;;;13.85;8.50;;;;;;;20.25;100.00;98763.88;5137563;28;20358;-66
2023/08/28 02:33:17;;;;;;;12.27;9.27;;;;;;;20.44;100.00;98762.94;5137405;28;20138;-66
2023/08/28 02:35:44;;;;;;;14.38;10.52;;;;;;;20.32;100.00;98744.19;5137449;28;20081;-67
2023/08/28 02:38:11;;;;;;;15.20;9.90;;;;;;;20.31;100.00;98734.28;5137511;28;20142;-62
2023/08/28 02:40:37;;;;;;;11.52;9.38;;;;;;;20.27;100.00;98732.81;5137526;28;20111;-66
2023/08/28 02:43:05;;;;;;;13.40;12.02;;;;;;;20.32;100.00;98721.13;5137243;28;20141;-61
2023/08/28 02:45:33;;;;;;;14.77;10.10;;;;;;;20.30;100.00;98718.03;5137397;28;20155;-64
2023/08/28 02:47:59;;;;;;;12.95;9.10;;;;;;;20.00;100.00;98694.22;5137515;28;20186;-63
2023/08/28 02:50:25;;;;;;;13.93;9.70;;;;;;;20.07;100.00;98671.78;5136847;28;20106;-61
2023/08/28 02:52:52;;;;;;;13.07;9.23;;;;;;;20.06;100.00;98689.66;5137195;28;20051;-62
2023/08/28 02:55:18;;;;;;;15.55;9.85;;;;;;;20.16;100.00;98683.81;5137047;28;20055;-61
2023/08/28 02:57:43;;;;;;;15.38;13.50;;;;;;;19.98;100.00;98669.63;5137371;28;20047;-62
2023/08/28 03:00:11;;;;;;;11.80;9.75;;;;;;;19.88;100.00;98642.88;5137174;28;20058;-64
2023/08/28 03:02:36;;;;;;;14.52;10.00;;;;;;;19.96;100.00;98664.50;5137351;28;20069;-65
2023/08/28 03:05:03;;;;;;;15.68;10.27;;;;;;;20.16;100.00;98669.91;5136920;28;20185;-64
2023/08/28 03:07:29;;;;;;;20.85;11.38;;;;;;;19.97;100.00;98685.53;5137144;28;20111;-64
2023/08/28 03:09:55;;;;;;;13.05;8.85;;;;;;;19.93;100.00;98659.81;5138768;27;20145;-66
2023/08/28 03:12:21;;;;;;;14.27;10.27;;;;;;;20.16;100.00;98686.59;5140785;28;20047;-64
2023/08/28 03:14:47;;;;;;;16.83;14.43;;;;;;;19.92;100.00;98694.41;5140056;28;20420;-66
2023/08/28 03:17:13;;;;;;;11.38;9.38;;;;;;;20.04;100.00;98690.13;5141015;28;20051;-67
2023/08/28 03:19:39;;;;;;;15.80;10.27;;;;;;;20.07;100.00;98688.47;5140457;28;20070;-66
2023/08/28 03:22:05;;;;;;;13.25;10.55;;;;;;;20.06;100.00;98681.31;5140179;28;20051;-64
2023/08/28 03:24:31;;;;;;;11.13;9.57;;;;;;;20.15;100.00;98700.94;5140436;28;20058;-64
2023/08/28 03:26:57;;;;;;;14.88;9.32;;;;;;;19.86;100.00;98707.31;5140296;28;20115;-64
2023/08/28 03:29:23;;;;;;;11.50;9.52;;;;;;;20.24;100.00;98694.75;5140482;28;20133;-62
2023/08/28 03:31:50;;;;;;;12.70;10.48;;;;;;;20.29;100.00;98724.78;5140185;28;20106;-67
2023/08/28 03:34:17;;;;;;;15.23;13.80;;;;;;;20.20;100.00;98719.91;5140166;28;20400;-61
2023/08/28 03:36:43;;;;;;;14.43;10.15;;;;;;;20.29;100.00;98730.38;5140019;28;20046;-66
2023/08/28 03:39:09;;;;;;;13.73;10.75;;;;;;;20.32;100.00;98749.75;5140285;28;20047;-64
2023/08/28 03:41:35;;;;;;;11.75;9.25;;;;;;;20.38;100.00;98750.00;5139939;28;20090;-62
2023/08/28 03:44:01;;;;;;;18.90;10.45;;;;;;;20.51;100.00;98755.63;5140236;28;20500;-62
2023/08/28 03:46:27;;;;;;;12.35;9.52;;;;;;;20.65;100.00;98778.25;5139818;28;20059;-61
2023/08/28 03:48:53;;;;;;;12.63;9.43;;;;;;;20.66;100.00;98771.50;5140000;28;20075;-62
2023/08/28 03:51:19;;;;;;;11.35;9.70;;;;;;;21.07;100.00;98805.31;5140063;28;20071;-64
2023/08/28 03:53:45;;;;;;;14.07;9.63;;;;;;;20.99;100.00;98815.09;5139661;28;20089;-66
2023/08/28 03:56:11;;;;;;;13.45;8.27;;;;;;;21.01;100.00;98816.22;5139864;28;20054;-66
2023/08/28 03:58:37;;;;;;;16.02;9.48;;;;;;;20.91;100.00;98806.19;5139806;28;20359;-66
2023/08/28 04:01:03;;;;;;;10.48;7.85;;;;;;;20.91;100.00;98795.81;5139935;28;20129;-65
2023/08/28 04:03:30;;;;;;;15.23;9.10;;;;;;;20.86;100.00;98796.38;5139705;28;20139;-66
2023/08/28 04:05:58;;;;;;;12.00;9.05;;;;;;;21.02;100.00;98791.91;5139761;28;20135;-61
2023/08/28 04:08:24;;;;;;;12.93;8.82;;;;;;;21.18;100.00;98796.63;5139572;28;20134;-63
2023/08/28 04:10:52;;;;;;;9.93;8.23;;;;;;;21.50;100.00;98782.47;5139805;28;20043;-66
2023/08/28 04:13:18;;;;;;;11.40;8.07;;;;;;;21.61;100.00;98770.94;5139295;28;20047;-62
2023/08/28 04:15:44;;;;;;;13.75;8.65;;;;;;;21.31;100.00;98780.66;5139768;28;20184;-61
2023/08/28 04:18:10;;;;;;;14.93;8.75;;;;;;;21.90;100.00;98764.41;5139521;28;20096;-62
2023/08/28 04:20:36;;;;;;;9.63;7.50;;;;;;;22.04;100.00;98728.41;5138910;27;20130;-61
2023/08/28 04:23:03;;;;;;;13.63;8.35;;;;;;;22.26;100.00;98725.66;5139398;28;20069;-65
2023/08/28 04:25:29;;;;;;;11.35;7.90;;;;;;;22.80;100.00;98589.50;5139483;28;20078;-61
2023/08/28 04:27:55;;;;;;;11.48;7.53;;;;;;;22.99;100.00;98459.75;5139533;28;20051;-66
2023/08/28 04:30:21;;;;;;;9.82;7.55;;;;;;;23.08;100.00;98431.00;5141174;28;20428;-64
2023/08/28 04:32:47;;;;;;;9.68;8.77;;;;;;;23.62;100.00;98384.56;5141806;28;20135;-62
2023/08/28 04:35:14;;;;;;;11.80;7.45;;;;;;;23.46;100.00;98275.88;5139243;28;20150;-67
2023/08/28 04:37:40;;;;;;;10.60;8.63;;;;;;;23.80;100.00;98178.69;5139283;28;20043;-66
2023/08/28 04:40:07;;;;;;;8.57;7.03;;;;;;;23.70;100.00;98292.69;5138921;28;20073;-63
2023/08/28 04:42:33;;;;;;;13.38;7.85;;;;;;;24.03;100.00;98118.28;5139297;28;20090;-67
2023/08/28 04:44:59;;;;;;;10.88;8.40;;;;;;;23.37;100.00;98429.72;5138718;28;20051;-61
2023/08/28 04:47:25;;;;;;;10.45;9.50;;;;;;;22.84;100.00;98505.50;5138723;28;20050;-62
2023/08/28 04:49:51;;;;;;;15.75;8.50;;;;;;;22.82;100.00;98580.66;5139153;28;20047;-67
2023/08/28 04:52:19;;;;;;;11.98;9.13;;;;;;;23.20;100.00;98666.97;5138883;28;20054;-64
2023/08/28 04:54:45;;;;;;;15.35;8.70;;;;;;;23.24;100.00;98564.13;5138807;28;20079;-63
2023/08/28 04:57:11;;;;;;;12.75;8.80;;;;;;;22.82;100.00;98567.44;5123776;28;20062;-58
2023/08/28 04:59:37;;;;;;;16.33;9.02;;;;;;;22.99;100.00;98629.47;5137364;28;20438;-58
2023/08/28 05:02:03;;;;;;;11.77;10.68;;;;;;;23.26;100.00;98502.91;5138778;28;20138;-59
2023/08/28 05:04:29;;;;;;;11.82;8.43;;;;;;;22.83;100.00;98473.22;5138271;28;20051;-67
2023/08/28 05:06:55;;;;;;;11.82;10.63;;;;;;;23.38;100.00;98386.50;5138252;28;20051;-68
2023/08/28 05:09:22;;;;;;;12.50;8.93;;;;;;;24.05;100.00;98290.13;5138227;28;20057;-63
2023/08/28 05:11:48;;;;;;;9.75;8.52;;;;;;;23.54;100.00;98190.31;5138795;28;20126;-69
2023/08/28 05:14:14;;;;;;;10.82;9.18;;;;;;;24.11;100.00;98211.84;5138203;28;20138;-64
2023/08/28 05:16:39;;;;;;;14.35;8.50;;;;;;;24.29;100.00;98012.84;5138595;28;20047;-57
2023/08/28 05:19:06;;;;;;;14.90;11.52;;;;;;;24.29;100.00;97995.25;5138154;28;20089;-61
2023/08/28 05:21:32;;;;;;;13.00;9.60;;;;;;;24.82;100.00;97991.44;5138277;28;20055;-60
2023/08/28 05:23:58;;;;;;;13.07;8.85;;;;;;;24.75;100.00;97734.03;5138346;28;20051;-63
2023/08/28 05:26:26;;;;;;;9.73;8.23;;;;;;;25.26;100.00;97581.75;5138060;28;20058;-63
2023/08/28 05:28:52;;;;;;;15.30;7.82;;;;;;;26.07;100.00;97435.47;5138081;28;20047;-65
2023/08/28 05:31:18;;;;;;;11.88;8.18;;;;;;;26.92;100.00;97260.41;5137395;27;20055;-62
2023/08/28 05:33:44;;;;;;;11.23;8.27;;;;;;;27.48;100.00;97217.00;5137948;28;20051;-60
2023/08/28 05:36:09;;;;;;;11.35;9.73;;;;;;;27.55;100.00;97263.50;5138091;28;20104;-62
2023/08/28 05:38:35;;;;;;;9.93;8.88;;;;;;;27.79;100.00;97240.25;5138190;28;20047;-63
2023/08/28 05:41:01;;;;;;;10.80;9.30;;;;;;;27.24;100.00;97217.00;5137713;28;20142;-62
2023/08/28 05:43:28;;;;;;;13.93;8.90;;;;;;;27.75;100.00;97248.97;5138237;28;20075;-61
2023/08/28 05:45:54;;;;;;;11.32;8.73;;;;;;;26.86;100.00;97247.72;5134258;28;20108;-60
2023/08/28 05:48:20;;;;;;;11.40;8.60;;;;;;;27.29;100.00;97261.19;5117026;28;20333;-58
2023/08/28 05:50:49;;;;;;;8.82;8.02;;;;;;;27.73;100.00;97298.66;5117255;28;20143;-62
2023/08/28 05:53:14;;;;;;;10.93;8.57;;;;;;;28.65;100.00;97405.00;5117226;28;20062;-60
2023/08/28 05:55:40;;;;;;;8.02;6.95;;;;;;;28.72;100.00;97463.63;5117252;28;20142;-62
2023/08/28 05:58:06;;;;;;;8.40;7.60;;;;;;;27.99;100.00;97422.06;5117158;28;20111;-68
2023/08/28 06:00:33;;;;;;;9.57;7.82;;;;;;;28.60;100.00;97441.22;5116857;28;20393;-64
2023/08/28 06:02:59;;;;;;;9.40;7.88;;;;;;;29.42;100.00;97525.88;5116862;28;20063;-65
2023/08/28 06:05:25;;;;;;;9.25;7.57;;;;;;;29.43;100.00;97587.47;5117194;28;20146;-59
2023/08/28 06:07:51;;;;;;;8.55;7.57;;;;;;;28.64;100.00;97395.81;5116751;28;20051;-60
2023/08/28 06:10:19;;;;;;;11.52;8.02;;;;;;;28.12;100.00;97323.59;5117247;28;20057;-61
2023/08/28 06:12:45;;;;;;;8.02;6.95;;;;;;;28.44;100.00;97428.06;5127309;28;20055;-59
2023/08/28 06:15:11;;;;;;;10.35;7.60;;;;;;;28.91;100.00;97365.72;5137415;28;20051;-55
2023/08/28 06:17:38;;;;;;;13.15;7.63;;;;;;;28.88;100.00;97355.50;5137234;28;20047;-57
2023/08/28 06:20:09;;;;;;;11.15;7.10;;;;;;;28.28;100.00;97316.25;5137279;28;20115;-58
2023/08/28 06:22:35;;;;;;;10.02;6.85;;;;;;;29.30;100.00;97452.66;5137383;28;20046;-61
2023/08/28 06:25:02;;;;;;;13.18;7.78;;;;;;;30.02;100.00;97503.75;5137271;28;20393;-61
2023/08/28 06:27:28;;;;;;;12.38;7.22;;;;;;;29.16;100.00;97490.56;5137208;28;20137;-64
2023/08/28 06:29:53;;;;;;;9.30;7.10;;;;;;;28.07;100.00;97446.31;5137114;28;20085;-64
2023/08/28 06:32:20;;;;;;;8.25;7.45;;;;;;;27.41;100.00;97271.06;5137264;28;20119;-62
2023/08/28 06:34:46;;;;;;;11.73;7.57;;;;;;;27.42;100.00;97213.47;5136718;28;20134;-59
2023/08/28 06:37:12;;;;;;;11.07;7.55;;;;;;;27.04;100.00;97159.88;5138323;28;20044;-60
2023/08/28 06:39:38;;;;;;;12.50;7.32;;;;;;;27.33;100.00;97183.66;5137385;28;20229;-59
2023/08/28 06:42:04;;;;;;;11.20;8.88;;;;;;;26.36;100.00;97147.59;5137399;28;20069;-59
2023/08/28 06:44:30;;;;;;;10.32;7.38;;;;;;;27.32;100.00;97195.44;5139795;27;20051;-61
2023/08/28 06:46:56;;;;;;;10.95;7.35;;;;;;;26.80;100.00;97171.09;5140522;28;20047;-62
2023/08/28 06:49:22;;;;;;;10.15;7.65;;;;;;;27.13;100.00;97203.81;5140821;28;20088;-62
2023/08/28 06:51:49;;;;;;;9.60;7.60;;;;;;;27.34;100.00;97266.78;5137030;28;20150;-64
2023/08/28 06:54:15;;;;;;;9.45;8.02;;;;;;;27.26;100.00;97250.97;5119803;28;20142;-61
2023/08/28 06:56:41;;;;;;;9.88;7.18;;;;;;;27.40;100.00;97233.72;5119947;28;20079;-65
2023/08/28 06:59:07;;;;;;;17.00;8.50;;;;;;;27.44;100.00;97216.53;5120193;28;20142;-60
2023/08/28 07:01:33;;;;;;;9.63;7.40;;;;;;;27.58;100.00;97235.06;5120670;28;20061;-59
2023/08/28 07:03:59;;;;;;;10.93;8.60;;;;;;;28.70;100.00;97336.53;5121235;28;20052;-60
2023/08/28 07:06:25;;;;;;;15.68;7.97;;;;;;;29.72;100.00;97529.38;5120002;28;20087;-61
2023/08/28 07:08:51;;;;;;;13.82;9.02;;;;;;;29.81;100.00;97535.91;5120212;28;20044;-63
2023/08/28 07:11:17;;;;;;;17.17;9.63;;;;;;;28.73;100.00;97395.44;5119655;28;20088;-60
2023/08/28 07:13:43;;;;;;;18.05;11.20;;;;;;;28.20;100.00;97344.28;5120065;28;20411;-62
2023/08/28 07:16:09;;;;;;;14.68;11.02;;;;;;;28.30;100.00;97345.44;5119727;28;20093;-64
2023/08/28 07:18:35;;;;;;;14.27;9.95;;;;;;;29.21;100.00;97489.72;5119505;28;20066;-66
2023/08/28 07:21:01;;;;;;;14.38;9.80;;;;;;;29.81;100.00;97559.28;5119640;28;20470;-67
2023/08/28 07:23:27;;;;;;;12.23;9.57;;;;;;;29.94;100.00;97607.38;5119456;28;20134;-63
2023/08/28 07:25:53;;;;;;;13.60;8.32;;;;;;;30.65;100.00;97701.44;5119248;28;20051;-62
2023/08/28 07:28:20;;;;;;;15.23;9.18;;;;;;;30.38;100.00;97670.22;5119098;28;20104;-60
2023/08/28 07:30:46;;;;;;;12.45;9.02;;;;;;;30.81;100.00;97689.13;5119021;28;20048;-65
2023/08/28 07:33:12;;;;;;;12.73;9.25;;;;;;;31.41;100.00;97745.22;5118123;28;20062;-65
2023/08/28 07:35:41;;;;;;;15.73;8.95;;;;;;;31.64;100.00;97790.16;5118830;28;20100;-66
2023/08/28 07:38:07;;;;;;;13.25;9.00;;;;;;;31.29;100.00;97794.06;5118275;28;20138;-61
2023/08/28 07:40:34;;;;;;;14.98;11.13;;;;;;;31.92;100.00;97709.53;5119178;28;20090;-61
2023/08/28 07:43:02;;;;;;;15.05;9.57;;;;;;;31.23;100.00;97765.13;5119089;28;20051;-64
2023/08/28 07:45:28;;;;;;;14.25;10.52;;;;;;;30.45;100.00;97668.81;5118903;28;20047;-66
2023/08/28 07:47:55;;;;;;;11.65;9.73;;;;;;;31.81;100.00;97748.09;5119119;28;20047;-63
2023/08/28 07:50:21;;;;;;;15.23;11.30;;;;;;;32.49;100.00;97761.72;5118963;28;20058;-67
2023/08/28 07:52:47;;;;;;;15.07;10.18;;;;;;;33.16;100.00;97829.63;5119021;28;20139;-60
2023/08/28 07:55:13;;;;;;;15.80;10.98;;;;;;;32.56;100.00;97808.50;5117959;28;20139;-59
2023/08/28 07:57:39;;;;;;;14.18;10.55;;;;;;;32.91;100.00;97866.78;5119049;28;20462;-61
2023/08/28 08:00:09;;;;;;;12.18;9.65;;;;;;;33.50;100.00;97827.50;5118718;28;20052;-63
2023/08/28 08:02:36;;;;;;;18.45;10.80;;;;;;;33.45;100.00;97836.13;5118941;28;20051;-61
2023/08/28 08:05:02;;;;;;;12.23;9.48;;;;;;;33.50;100.00;97855.91;5118827;28;20066;-61
2023/08/28 08:07:28;;;;;;;11.55;9.38;;;;;;;33.73;100.00;97849.66;5119185;28;20329;-59
2023/08/28 08:09:54;;;;;;;10.68;8.52;;;;;;;33.57;100.00;97857.28;5118759;28;20058;-60
2023/08/28 08:12:20;;;;;;;11.75;9.05;;;;;;;33.88;100.00;97858.28;5118694;28;20083;-59
2023/08/28 08:14:46;;;;;;;13.88;9.20;;;;;;;33.12;100.00;97840.53;5118822;28;20093;-63
2023/08/28 08:17:12;;;;;;;13.30;8.80;;;;;;;33.09;100.00;97805.50;5118723;28;20338;-63
2023/08/28 08:19:38;;;;;;;11.48;8.57;;;;;;;33.10;100.00;97820.47;5118806;28;20055;-61
2023/08/28 08:22:04;;;;;;;18.85;8.43;;;;;;;32.89;100.00;97826.84;5118537;28;20389;-64
2023/08/28 08:24:30;;;;;;;10.13;9.02;;;;;;;33.06;100.00;97837.06;5119088;28;20115;-62
2023/08/28 08:26:57;;;;;;;14.98;9.98;;;;;;;32.71;100.00;97768.19;5118493;28;20051;-57
2023/08/28 08:29:23;;;;;;;14.32;9.55;;;;;;;32.22;100.00;97723.31;5118396;28;20138;-64
2023/08/28 08:31:50;;;;;;;20.58;9.73;;;;;;;31.78;100.00;97756.94;5118330;28;20383;-60
2023/08/28 08:34:18;;;;;;;13.13;9.05;;;;;;;31.68;100.00;97719.75;5118678;28;20047;-63
2023/08/28 08:36:44;;;;;;;16.98;9.80;;;;;;;31.46;100.00;97675.66;5118128;28;20055;-64
2023/08/28 08:39:10;;;;;;;12.23;8.93;;;;;;;31.56;100.00;97684.47;5118737;28;20424;-64
2023/08/28 08:41:38;;;;;;;12.40;9.32;;;;;;;31.25;100.00;97672.66;5118361;28;20043;-60
2023/08/28 08:44:05;;;;;;;16.30;8.73;;;;;;;31.17;100.00;97736.88;5118348;28;20142;-58
2023/08/28 08:46:32;;;;;;;12.00;9.57;;;;;;;31.76;100.00;97726.31;5118464;28;20148;-57
2023/08/28 08:49:00;;;;;;;10.73;9.15;;;;;;;32.28;100.00;97823.97;5118151;28;20142;-59
2023/08/28 08:51:30;;;;;;;13.23;8.10;;;;;;;32.79;100.00;97848.50;5118322;28;20066;-60
2023/08/28 08:54:04;;;;;;;9.63;8.48;;;;;;;32.74;100.00;97852.19;5117948;28;20078;-61
2023/08/28 08:56:32;;;;;;;10.35;8.63;;;;;;;32.49;100.00;97826.16;5117839;28;20379;-60
2023/08/28 08:58:58;;;;;;;28.00;12.55;;;;;;;33.14;100.00;97829.41;5117838;28;20115;-60
2023/08/28 09:01:26;;;;;;;21.30;9.52;;;;;;;33.37;100.00;97823.94;5118354;28;20051;-61
2023/08/28 09:03:52;;;;;;;10.48;9.00;;;;;;;33.63;100.00;97866.44;5117686;28;20160;-61
2023/08/28 09:06:18;;;;;;;9.10;8.20;;;;;;;33.49;100.00;97879.19;5117803;28;20345;-56
2023/08/28 09:08:46;;;;;;;11.32;8.05;;;;;;;33.69;100.00;97909.69;5117975;28;20460;-60
2023/08/28 09:11:12;;;;;;;11.65;8.50;;;;;;;33.58;100.00;97866.56;5117609;28;20634;-59
2023/08/28 09:13:38;;;;;;;10.32;7.60;;;;;;;33.21;100.00;97874.91;5117793;28;20182;-58
2023/08/28 09:16:04;;;;;;;13.45;7.40;;;;;;;33.62;100.00;97872.66;5117976;28;20059;-63
2023/08/28 09:18:31;;;;;;;16.98;7.55;;;;;;;33.57;100.00;97893.47;5118025;28;20047;-58
2023/08/28 09:21:07;;;;;;;12.70;7.28;;;;;;;33.86;100.00;97914.94;5117691;28;20048;-63
2023/08/28 09:23:33;;;;;;;12.68;7.05;;;;;;;34.19;100.00;97938.94;5118050;28;20047;-63
2023/08/28 09:26:00;;;;;;;12.07;6.72;;;;;;;33.58;100.00;97932.69;5117414;28;20089;-57
2023/08/28 09:28:27;;;;;;;10.18;6.60;;;;;;;33.30;100.00;97892.78;5117751;28;20058;-61
2023/08/28 09:30:52;;;;;;;10.38;7.25;;;;;;;34.29;100.00;97921.34;5117322;28;20141;-59
2023/08/28 09:33:19;;;;;;;11.80;7.32;;;;;;;34.81;100.00;97939.34;5117183;28;20044;-59
2023/08/28 09:35:45;;;;;;;11.60;6.72;;;;;;;34.27;100.00;97930.44;5117473;28;20047;-62
2023/08/28 09:38:11;;;;;;;8.35;6.90;;;;;;;34.98;100.00;97930.28;5117412;28;20054;-61
2023/08/28 09:40:39;;;;;;;7.80;6.22;;;;;;;34.83;100.00;97968.00;5117249;28;20047;-63
2023/08/28 09:43:12;;;;;;;7.45;5.82;;;;;;;34.14;100.00;97968.28;5117460;28;20051;-61
2023/08/28 09:45:38;;;;;;;9.07;6.97;;;;;;;33.88;100.00;97971.25;5117527;28;20052;-63
2023/08/28 09:48:05;;;;;;;8.93;5.20;;;;;;;33.86;100.00;97973.88;5117041;28;20043;-65
2023/08/28 09:50:32;;;;;;;9.55;6.90;;;;;;;34.48;100.00;97978.00;5117448;28;20043;-64
2023/08/28 09:53:06;;;;;;;26.90;24.00;;;;;;;34.59;100.00;97983.41;5116968;28;20047;-66
2023/08/28 09:55:32;;;;;;;12.55;5.70;;;;;;;34.93;100.00;97979.66;5117361;28;20062;-64
2023/08/28 09:57:58;;;;;;;8.90;5.35;;;;;;;34.74;100.00;97979.91;5117076;28;20322;-63
2023/08/28 10:00:24;;;;;;;12.40;5.63;;;;;;;34.86;100.00;97990.44;5117124;28;20146;-60
2023/08/28 10:02:52;;;;;;;9.02;5.90;;;;;;;35.30;100.00;97981.16;5117087;28;20412;-61
2023/08/28 10:05:20;;;;;;;7.78;5.47;;;;;;;35.17;100.00;97992.69;5116938;28;20386;-60
2023/08/28 10:07:47;;;;;;;5.30;4.53;;;;;;;34.74;100.00;97994.91;5117027;28;20134;-65
2023/08/28 10:10:16;;;;;;;11.60;5.30;;;;;;;35.41;99.58;97992.19;5116641;28;20197;-58
2023/08/28 10:12:44;;;;;;;6.93;4.65;;;;;;;34.55;98.99;97994.38;5117163;28;20051;-58
2023/08/28 10:15:11;;;;;;;6.20;4.40;;;;;;;34.35;100.00;97988.16;5116679;28;20138;-60
2023/08/28 10:17:40;;;;;;;8.07;5.00;;;;;;;34.48;100.00;98000.75;5116381;28;20043;-60
2023/08/28 10:20:09;;;;;;;7.43;4.40;;;;;;;34.69;97.21;98007.22;5116657;28;20390;-65
2023/08/28 10:22:37;;;;;;;7.93;4.20;;;;;;;35.10;95.97;98011.25;5117046;28;20114;-61
2023/08/28 10:25:05;;;;;;;8.70;4.40;;;;;;;35.09;96.31;98006.91;5116392;28;20452;-60
2023/08/28 10:27:32;;;;;;;6.68;4.30;;;;;;;34.49;98.74;98011.59;5116496;28;20062;-63
2023/08/28 10:29:59;;;;;;;7.13;4.28;;;;;;;33.66;100.00;97992.44;5116775;28;20484;-65
2023/08/28 10:32:26;;;;;;;12.20;6.22;;;;;;;33.91;100.00;97995.72;5116464;28;20051;-63
2023/08/28 10:34:54;;;;;;;10.68;5.80;;;;;;;34.46;99.59;97995.66;5116424;28;20453;-60
2023/08/28 10:37:20;;;;;;;7.13;4.53;;;;;;;34.16;97.97;98008.31;5116392;28;20065;-61
2023/08/28 10:39:48;;;;;;;7.63;3.85;;;;;;;34.39;96.92;98007.72;5116798;28;20052;-58
2023/08/28 10:42:17;;;;;;;9.40;4.60;;;;;;;33.41;100.00;97981.34;5116404;28;20043;-60
2023/08/28 10:44:45;;;;;;;5.68;4.05;;;;;;;33.76;100.00;97998.41;5117118;28;20452;-65
2023/08/28 10:47:15;;;;;;;7.32;4.30;;;;;;;34.11;100.00;97999.91;5116221;28;20138;-65
2023/08/28 10:49:41;;;;;;;12.98;5.80;;;;;;;34.68;100.00;98008.53;5116965;28;20150;-64
2023/08/28 10:52:07;;;;;;;7.15;4.38;;;;;;;34.05;100.00;98002.88;5116772;28;20052;-61
2023/08/28 10:54:37;;;;;;;6.40;4.32;;;;;;;33.96;98.35;98003.34;5116382;28;20055;-58
2023/08/28 10:57:06;;;;;;;10.65;3.75;;;;;;;33.70;100.00;97990.78;5116519;28;20142;-61
2023/08/28 10:59:42;;;;;;;8.48;4.53;;;;;;;33.70;100.00;98002.16;5116146;28;20096;-59
2023/08/28 11:02:09;;;;;;;10.73;5.20;;;;;;;33.79;100.00;98000.13;5116287;28;20412;-64
2023/08/28 11:04:36;;;;;;;4.55;3.40;;;;;;;33.56;100.00;97989.31;5116086;28;20436;-57
2023/08/28 11:07:03;;;;;;;12.10;4.95;;;;;;;33.37;100.00;97963.13;5116469;28;20142;-57
2023/08/28 11:09:39;;;;;;;5.57;4.22;;;;;;;33.30;100.00;97969.47;5115868;28;20417;-59
2023/08/28 11:12:25;;;;;;;5.75;4.25;;;;;;;33.01;100.00;97957.94;5116375;28;20397;-60
2023/08/28 11:14:58;;;;;;;6.47;4.43;;;;;;;32.57;100.00;97946.94;5115985;28;20143;-61